Time;durP1;ratioP1;P1;durP2;ratioP2;P2;SDS_P1;SDS_P2;PMS_P1;PMS_P2;Temp;Humidity;BMP_temperature;BMP_pressure;BME280_temperature;BME280_humidity;BME280_pressure;Samples;Min_cycle;Max_cycle;Signal;HPM_P1;HPM_P2
2022/10/01 06:25:29;;;;;;;;;1.00;0.00;;;;;16.76;71.04;100717.63;2648851;23;46415;-88
2022/10/01 06:26:40;;;;;;;;;0.00;0.00;;;;;16.77;70.63;100715.81;2379916;28;45455;-88
2022/10/01 06:27:54;;;;;;;;;1.00;0.00;;;;;16.78;71.05;100706.91;2378731;28;46531;-87
2022/10/01 06:29:04;;;;;;;;;1.00;0.00;;;;;16.82;70.74;100724.34;2382794;28;45483;-88
2022/10/01 06:30:15;;;;;;;;;0.00;0.00;;;;;16.82;70.78;100724.34;2371394;28;48043;-87
2022/10/01 06:31:25;;;;;;;;;0.50;0.00;;;;;16.83;71.14;100720.75;2372403;28;45282;-88
2022/10/01 06:32:35;;;;;;;;;0.00;0.00;;;;;16.86;70.53;100725.88;2382002;28;48227;-88
2022/10/01 06:33:46;;;;;;;;;0.00;0.00;;;;;16.86;70.38;100725.88;2383380;28;45484;-88
2022/10/01 06:34:56;;;;;;;;;0.00;0.00;;;;;16.89;70.67;100737.25;2387613;28;47830;-88
2022/10/01 06:36:07;;;;;;;;;0.25;0.00;;;;;16.90;70.83;100720.38;2383013;28;45531;-88
2022/10/01 06:37:17;;;;;;;;;1.00;0.00;;;;;16.87;70.53;100716.97;2383281;28;46666;-88
2022/10/01 06:38:27;;;;;;;;;0.00;0.00;;;;;16.89;70.88;100716.84;2373938;28;44645;-88
2022/10/01 06:39:38;;;;;;;;;0.00;0.00;;;;;16.91;71.02;100722.09;2376655;28;46571;-88
2022/10/01 06:40:53;;;;;;;;;0.00;0.00;;;;;16.92;70.96;100727.31;2383660;28;45151;-88
2022/10/01 06:42:04;;;;;;;;;0.00;0.00;;;;;16.94;70.05;100729.88;2373810;28;47962;-88
2022/10/01 06:43:14;;;;;;;;;0.00;0.00;;;;;16.94;71.81;100733.38;2368755;28;45247;-88
2022/10/01 06:44:25;;;;;;;;;0.00;0.00;;;;;16.93;70.98;100731.69;2378921;28;45595;-88
2022/10/01 06:45:41;;;;;;;;;0.50;0.00;;;;;16.97;71.02;100734.97;2373521;28;45357;-88
2022/10/01 06:46:53;;;;;;;;;0.00;0.00;;;;;16.97;71.54;100734.97;2378063;28;47523;-88
2022/10/01 06:48:04;;;;;;;;;0.00;0.00;;;;;16.98;70.57;100739.34;2384782;28;45281;-88
2022/10/01 06:49:14;;;;;;;;;0.00;0.00;;;;;16.99;70.63;100741.06;2375357;28;48253;-88
2022/10/01 06:50:25;;;;;;;;;0.00;0.00;;;;;17.01;70.92;100744.50;2371344;28;45148;-89
2022/10/01 06:53:05;;;;;;;;;0.00;0.00;;;;;17.03;69.84;100737.28;2376336;28;45195;-89
2022/10/01 06:54:17;;;;;;;;;1.75;0.00;;;;;17.04;70.84;100740.81;2381755;28;46407;-88
2022/10/01 06:55:30;;;;;;;;;0.00;0.00;;;;;17.05;70.51;100730.06;2372595;28;45234;-87
2022/10/01 06:56:41;;;;;;;;;0.00;0.00;;;;;17.06;70.49;100744.22;2368439;28;47280;-87
2022/10/01 06:58:02;;;;;;;;;0.00;0.00;;;;;17.09;70.71;100749.31;2378761;28;44860;-88
2022/10/01 06:59:12;;;;;;;;;0.00;0.00;;;;;17.09;71.09;100746.66;2383465;28;45969;-88
2022/10/01 07:00:24;;;;;;;;;0.00;0.00;;;;;17.09;70.26;100742.22;2373350;28;45513;-88
2022/10/01 07:01:35;;;;;;;;;0.00;0.00;;;;;17.13;70.41;100752.66;2378878;28;45429;-90
2022/10/01 07:02:45;;;;;;;;;0.00;0.00;;;;;17.12;70.42;100742.97;2375333;28;45498;-92
2022/10/01 07:03:55;;;;;;;;;1.00;0.00;;;;;17.10;69.99;100749.25;2367866;28;47167;-88
2022/10/01 07:05:07;;;;;;;;;1.00;0.00;;;;;17.13;70.13;100744.69;2378110;28;45446;-89
2022/10/01 07:06:17;;;;;;;;;1.00;0.00;;;;;17.15;70.29;100753.41;2375178;28;47433;-88
2022/10/01 07:07:30;;;;;;;;;0.00;0.00;;;;;17.16;70.86;100755.16;2376562;28;45286;-89
2022/10/01 07:08:40;;;;;;;;;1.00;0.00;;;;;17.17;70.89;100759.50;2374473;28;48127;-88
2022/10/01 07:09:50;;;;;;;;;0.00;0.00;;;;;17.20;69.92;100762.84;2374066;28;44757;-88
2022/10/01 07:11:01;;;;;;;;;0.00;0.00;;;;;17.20;70.46;100756.66;2376823;28;45308;-87
2022/10/01 07:12:12;;;;;;;;;0.00;0.00;;;;;17.24;70.49;100758.19;2384392;28;45252;-89
2022/10/01 07:13:22;;;;;;;;;0.00;0.00;;;;;17.24;70.52;100759.97;2374843;28;48072;-88
2022/10/01 07:14:32;;;;;;;;;0.00;0.00;;;;;17.27;70.31;100759.81;2374579;28;45609;-88
2022/10/01 07:15:44;;;;;;;;;0.00;0.00;;;;;17.31;70.20;100761.31;2377686;28;45214;-90
2022/10/01 07:16:54;;;;;;;;;0.00;0.00;;;;;17.30;69.84;100768.44;2375149;28;44741;-89
2022/10/01 07:18:05;;;;;;;;;0.00;0.00;;;;;17.33;69.43;100751.47;2377568;28;45373;-89
2022/10/01 07:19:15;;;;;;;;;0.50;0.00;;;;;17.38;69.71;100772.44;2375913;28;45296;-90
2022/10/01 07:20:26;;;;;;;;;0.00;0.00;;;;;17.39;69.73;100774.13;2384132;28;46351;-90
2022/10/01 07:21:36;;;;;;;;;0.50;0.00;;;;;17.40;69.94;100775.84;2384322;28;45325;-90
2022/10/01 07:22:47;;;;;;;;;0.00;0.00;;;;;17.39;70.29;100782.09;2392963;28;47361;-90
2022/10/01 07:23:58;;;;;;;;;0.00;0.00;;;;;17.40;70.07;100781.16;2383131;28;45329;-90
2022/10/01 07:25:09;;;;;;;;;0.75;0.00;;;;;17.43;70.55;100794.25;2381587;28;45456;-89
2022/10/01 07:26:19;;;;;;;;;0.00;0.00;;;;;17.41;70.40;100785.50;2374119;28;45438;-90
2022/10/01 07:27:29;;;;;;;;;0.00;0.00;;;;;17.42;70.40;100793.41;2377504;28;46264;-90
2022/10/01 07:28:40;;;;;;;;;0.50;0.00;;;;;17.43;69.97;100780.97;2384078;28;45208;-90
2022/10/01 07:29:51;;;;;;;;;0.00;0.00;;;;;17.42;69.64;100788.09;2383490;28;46372;-90
2022/10/01 07:31:05;;;;;;;;;0.00;0.00;;;;;17.43;69.88;100791.59;2374907;28;45326;-90
2022/10/01 07:32:16;;;;;;;;;0.00;0.00;;;;;17.41;68.87;100790.81;2380284;28;46279;-90
2022/10/01 07:33:26;;;;;;;;;0.00;0.00;;;;;17.42;69.42;100796.06;2374546;28;45302;-90
2022/10/01 07:34:41;;;;;;;;;2.00;1.00;;;;;17.43;69.76;100802.22;2376402;28;46179;-90
2022/10/01 07:35:51;;;;;;;;;0.00;0.00;;;;;17.43;69.61;100800.41;2374324;28;45315;-91
2022/10/01 07:37:04;;;;;;;;;0.00;0.00;;;;;17.42;69.58;100805.81;2377848;28;45369;-90
2022/10/01 07:38:14;;;;;;;;;1.75;0.00;;;;;17.40;69.50;100810.38;2385311;28;45223;-90
2022/10/01 07:39:24;;;;;;;;;0.00;0.00;;;;;17.40;69.87;100808.59;2374372;28;46285;-89
2022/10/01 07:40:35;;;;;;;;;1.00;1.00;;;;;17.40;68.52;100813.91;2385764;28;45180;-89
2022/10/01 07:41:45;;;;;;;;;0.00;0.00;;;;;17.40;69.73;100818.34;2397205;28;45411;-89
2022/10/01 07:42:56;;;;;;;;;1.00;0.00;;;;;17.39;69.31;100812.19;2383770;28;44818;-91
2022/10/01 07:44:06;;;;;;;;;0.25;0.25;;;;;17.41;69.38;100814.72;2393301;28;47012;-90
2022/10/01 07:45:17;;;;;;;;;2.00;0.00;;;;;17.43;69.02;100812.88;2389431;28;45346;-90
2022/10/01 07:46:27;;;;;;;;;0.00;0.00;;;;;17.42;68.28;100812.00;2374705;28;47249;-90
2022/10/01 07:47:37;;;;;;;;;2.00;0.00;;;;;17.40;69.09;100813.91;2377290;28;45703;-90
2022/10/01 07:48:48;;;;;;;;;0.00;0.00;;;;;17.42;68.56;100821.75;2384504;28;46748;-87
2022/10/01 07:49:58;;;;;;;;;0.75;0.75;;;;;17.41;68.97;100820.91;2384418;28;45464;-89
2022/10/01 07:51:09;;;;;;;;;0.00;0.00;;;;;17.43;68.56;100821.66;2374334;28;47417;-89
2022/10/01 07:52:19;;;;;;;;;1.00;0.25;;;;;17.41;68.90;100822.69;2377893;28;45449;-89
2022/10/01 07:53:30;;;;;;;;;1.50;0.00;;;;;17.43;68.58;100818.19;2384366;28;45263;-89
2022/10/01 07:54:40;;;;;;;;;0.25;0.00;;;;;17.42;68.36;100821.75;2385119;28;44593;-89
2022/10/01 07:55:51;;;;;;;;;0.25;0.25;;;;;17.45;68.46;100824.25;2384452;28;45318;-90
2022/10/01 07:57:01;;;;;;;;;5.00;0.25;;;;;17.46;68.06;100828.59;2384510;28;44623;-90
2022/10/01 07:58:12;;;;;;;;;0.50;0.50;;;;;17.46;68.49;100828.59;2384762;28;45260;-86
2022/10/01 07:59:22;;;;;;;;;1.25;0.00;;;;;17.47;68.39;100840.94;2383683;28;45472;-91
2022/10/01 08:00:33;;;;;;;;;1.00;0.00;;;;;17.46;68.28;100831.25;2383364;28;46087;-90
2022/10/01 08:01:47;;;;;;;;;0.00;0.00;;;;;17.51;67.97;100838.94;2386254;28;45442;-89
2022/10/01 08:02:58;;;;;;;;;0.00;0.00;;;;;17.51;67.71;100842.44;2383937;28;46297;-90
2022/10/01 08:05:40;;;;;;;;;0.25;0.00;;;;;17.58;67.43;100839.44;2380525;28;45345;-90
2022/10/01 08:06:52;;;;;;;;;0.00;0.00;;;;;17.61;67.15;100849.84;2385048;28;45288;-91
2022/10/01 08:08:07;;;;;;;;;1.00;0.25;;;;;17.65;66.92;100846.09;2382960;28;45424;-90
2022/10/01 08:09:19;;;;;;;;;2.00;0.00;;;;;17.67;67.16;100846.84;2384772;28;45448;-90
2022/10/01 08:10:30;;;;;;;;;1.25;0.25;;;;;17.71;67.47;100842.16;2383820;28;47114;-90
2022/10/01 08:11:40;;;;;;;;;0.00;0.00;;;;;17.75;67.41;100841.06;2376724;28;45450;-91
2022/10/01 08:12:51;;;;;;;;;2.00;0.25;;;;;17.81;67.29;100840.66;2359023;29;46815;-91
2022/10/01 08:14:03;;;;;;;;;0.00;0.00;;;;;17.82;66.43;100849.50;2375785;28;45288;-90
2022/10/01 08:15:16;;;;;;;;;0.00;0.00;;;;;17.84;65.98;100843.13;2383093;28;47043;-90
2022/10/01 08:16:27;;;;;;;;;1.00;0.00;;;;;17.90;66.36;100849.88;2370769;28;45619;-90
2022/10/01 08:17:39;;;;;;;;;0.50;0.50;;;;;17.91;66.06;100846.25;2366699;28;46943;-90
2022/10/01 08:18:51;;;;;;;;;2.25;0.00;;;;;17.91;65.80;100848.06;2360502;28;45387;-90
2022/10/01 08:20:02;;;;;;;;;1.00;0.00;;;;;17.93;65.69;100848.81;2367651;28;47122;-90
2022/10/01 08:21:13;;;;;;;;;0.50;0.00;;;;;17.95;65.66;100854.91;2386539;28;45230;-90
2022/10/01 08:22:23;;;;;;;;;1.25;0.00;;;;;17.96;65.63;100860.13;2380013;28;47199;-90
2022/10/01 08:23:34;;;;;;;;;2.00;0.00;;;;;17.97;65.58;100863.63;2383446;28;45259;-90
2022/10/01 08:24:44;;;;;;;;;1.00;0.00;;;;;18.00;65.63;100868.78;2381075;28;47867;-90
2022/10/01 08:26:04;;;;;;;;;0.00;0.00;;;;;18.04;65.77;100872.06;2374167;28;44714;-89
2022/10/01 08:27:14;;;;;;;;;3.75;1.00;;;;;18.08;65.61;100866.47;2360114;29;48295;-89
2022/10/01 08:28:25;;;;;;;;;3.00;1.00;;;;;18.14;65.33;100873.22;2382949;28;45199;-90
2022/10/01 08:29:35;;;;;;;;;3.00;0.00;;;;;18.16;65.30;100884.59;2392166;28;46573;-91
2022/10/01 08:30:45;;;;;;;;;0.00;0.00;;;;;18.15;65.35;100880.22;2386428;28;45445;-89
2022/10/01 08:31:57;;;;;;;;;4.00;0.00;;;;;18.16;65.13;100884.59;2384462;28;45399;-91
2022/10/01 08:33:13;;;;;;;;;2.00;0.00;;;;;18.17;65.03;100880.16;2373848;28;45729;-90
2022/10/01 08:34:23;;;;;;;;;0.25;0.00;;;;;18.18;65.23;100882.69;2368118;28;47330;-91
2022/10/01 08:35:37;;;;;;;;;2.00;1.00;;;;;18.17;65.21;100886.31;2368145;28;45216;-89
2022/10/01 08:36:51;;;;;;;;;1.00;0.00;;;;;18.16;64.79;100878.44;2368221;28;48259;-90
2022/10/01 08:38:03;;;;;;;;;0.75;0.75;;;;;18.15;65.10;100888.19;2370847;28;46010;-90
2022/10/01 08:39:15;;;;;;;;;1.00;0.00;;;;;18.16;64.30;100894.38;2383895;28;45365;-90
2022/10/01 08:40:25;;;;;;;;;0.75;0.75;;;;;18.14;65.01;100899.81;2376554;28;45469;-91
2022/10/01 08:42:06;;;;;;;;;3.00;0.50;;;;;18.14;64.48;100897.16;2377147;28;45385;-89
2022/10/01 08:43:23;;;;;;;;;4.00;1.00;;;;;18.14;64.98;100901.63;2374130;28;45399;-89
2022/10/01 08:44:44;;;;;;;;;0.75;0.75;;;;;18.10;64.63;100898.28;2374471;28;48309;-90
2022/10/01 08:46:01;;;;;;;;;1.00;1.00;;;;;18.08;65.18;100898.38;2378553;28;45530;-91
2022/10/01 08:47:30;;;;;;;;;1.00;0.00;;;;;18.08;64.97;100903.69;2374191;28;47262;-91
2022/10/01 08:49:19;;;;;;;;;1.50;0.50;;;;;18.10;65.09;100904.44;2370389;28;44566;-90
2022/10/01 08:50:34;;;;;;;;;0.00;0.00;;;;;18.09;64.88;100907.22;2382339;28;45345;-91
2022/10/01 08:52:02;;;;;;;;;0.75;0.25;;;;;18.11;64.93;100913.28;2374375;28;45262;-91
2022/10/01 08:53:30;;;;;;;;;1.00;1.00;;;;;18.15;64.62;100912.16;2369743;28;47189;-92
2022/10/01 08:54:49;;;;;;;;;1.75;1.50;;;;;18.17;64.88;100912.94;2374566;28;45253;-92
2022/10/01 08:56:01;;;;;;;;;1.00;0.25;;;;;18.20;65.49;100914.53;2369228;28;47467;-89
2022/10/01 08:57:22;;;;;;;;;2.75;0.25;;;;;18.24;65.09;100913.41;2377044;28;45222;-90
2022/10/01 08:58:45;;;;;;;;;2.00;0.00;;;;;18.26;64.69;100916.84;2374185;28;47123;-91
2022/10/01 09:00:09;;;;;;;;;1.25;1.00;;;;;18.29;65.24;100921.97;2368793;28;45473;-92
2022/10/01 09:01:20;;;;;;;;;0.00;0.00;;;;;18.31;64.80;100929.84;2375766;28;47010;-89
2022/10/01 09:02:38;;;;;;;;;2.50;0.00;;;;;18.32;65.32;100929.75;2380429;28;45525;-91
2022/10/01 09:03:49;;;;;;;;;1.25;0.25;;;;;18.35;64.93;100934.00;2374740;28;48187;-89
2022/10/01 09:05:05;;;;;;;;;0.00;0.00;;;;;18.39;65.35;100929.38;2366432;28;45332;-91
2022/10/01 09:06:24;;;;;;;;;3.00;1.25;;;;;18.42;65.66;100927.34;2377963;28;46488;-92
2022/10/01 09:08:01;;;;;;;;;2.00;0.00;;;;;18.47;65.01;100934.19;2376811;28;45595;-90
2022/10/01 09:09:39;;;;;;;;;3.00;0.50;;;;;18.51;65.56;100935.72;2381203;28;45582;-91
2022/10/01 09:10:59;;;;;;;;;1.00;0.50;;;;;18.54;64.75;100936.34;2379376;28;45569;-92
2022/10/01 09:12:28;;;;;;;;;1.75;0.00;;;;;18.60;65.45;100947.56;2374503;28;48137;-91
2022/10/01 09:14:06;;;;;;;;;1.00;1.00;;;;;18.62;64.64;100943.84;2386580;28;45449;-90
2022/10/01 09:15:46;;;;;;;;;0.50;0.50;;;;;18.65;64.97;100943.66;2376739;28;48237;-89
2022/10/01 09:17:04;;;;;;;;;1.75;0.75;;;;;18.72;64.11;100951.25;2381466;28;44793;-90
2022/10/01 09:18:17;;;;;;;;;1.00;0.00;;;;;18.74;64.75;100946.69;2381453;28;46595;-92
2022/10/01 09:19:53;;;;;;;;;1.00;1.00;;;;;18.75;64.88;100940.41;2374533;28;45375;-91
2022/10/01 09:21:19;;;;;;;;;1.50;1.25;;;;;18.80;65.20;100948.09;2371411;28;47130;-90
2022/10/01 09:22:37;;;;;;;;;1.00;1.00;;;;;18.82;64.24;100938.19;2378497;28;45708;-92
2022/10/01 09:24:07;;;;;;;;;1.50;0.75;;;;;18.84;64.75;100942.47;2372360;28;47080;-91
2022/10/01 09:25:24;;;;;;;;;1.25;1.00;;;;;18.89;64.79;100943.00;2367700;28;45524;-90
2022/10/01 09:26:37;;;;;;;;;1.00;1.00;;;;;18.92;64.54;100949.94;2385044;28;47916;-92
2022/10/01 09:27:49;;;;;;;;;4.00;2.00;;;;;18.93;64.32;100951.66;2387400;28;44802;-90
2022/10/01 09:29:01;;;;;;;;;1.25;1.00;;;;;18.95;64.52;100954.22;2381361;28;46600;-91
2022/10/01 09:30:17;;;;;;;;;1.25;0.50;;;;;18.95;64.20;100952.41;2376807;28;45528;-92
2022/10/01 09:31:36;;;;;;;;;1.25;1.25;;;;;18.97;64.13;100958.50;2385037;28;47368;-91
2022/10/01 09:32:54;;;;;;;;;1.00;1.00;;;;;18.93;63.75;100957.00;2388410;28;45267;-92
2022/10/01 09:34:13;;;;;;;;;3.00;1.00;;;;;18.89;63.78;100969.66;2382996;28;46510;-90
2022/10/01 09:35:37;;;;;;;;;1.00;1.00;;;;;18.84;63.64;100966.41;2383167;28;45274;-89
2022/10/01 09:37:13;;;;;;;;;3.00;1.50;;;;;18.85;63.80;100964.63;2374308;28;47112;-89
2022/10/01 09:38:35;;;;;;;;;2.50;1.00;;;;;18.86;64.20;100964.53;2372817;28;45445;-90
2022/10/01 09:39:51;;;;;;;;;5.50;2.00;;;;;18.89;63.98;100969.66;2374062;28;47232;-89
2022/10/01 09:41:02;;;;;;;;;3.00;1.25;;;;;18.87;63.75;100965.38;2369673;28;45406;-89
2022/10/01 09:42:13;;;;;;;;;2.25;1.25;;;;;18.93;64.21;100966.78;2376403;28;48271;-91
2022/10/01 09:43:28;;;;;;;;;2.25;2.00;;;;;18.94;63.65;100966.69;2379143;28;45277;-89
2022/10/01 09:44:39;;;;;;;;;1.00;1.00;;;;;18.95;64.08;100984.38;2368686;28;47024;-89
2022/10/01 09:45:50;;;;;;;;;2.50;0.75;;;;;18.96;63.69;100979.91;2377857;28;45323;-89
2022/10/01 09:47:00;;;;;;;;;0.25;0.25;;;;;18.99;63.01;100980.56;2389660;28;45781;-90
2022/10/01 09:48:16;;;;;;;;;2.00;1.25;;;;;18.98;63.03;100980.66;2381505;28;45503;-90
2022/10/01 09:49:42;;;;;;;;;2.75;1.00;;;;;19.02;63.09;100976.84;2379121;28;46341;-90
2022/10/01 09:50:58;;;;;;;;;1.50;1.00;;;;;19.04;62.87;100969.59;2368915;28;45527;-90
2022/10/01 09:52:17;;;;;;;;;1.00;1.00;;;;;19.06;63.19;100983.66;2367137;28;48426;-90
2022/10/01 09:53:38;;;;;;;;;4.00;1.00;;;;;19.09;62.77;100971.94;2377925;28;45204;-90
2022/10/01 09:54:52;;;;;;;;;3.75;1.00;;;;;19.11;63.10;100973.56;2386935;28;47229;-88
2022/10/01 09:56:27;;;;;;;;;3.00;1.00;;;;;19.15;63.77;100976.03;2379705;28;44686;-89
2022/10/01 09:57:43;;;;;;;;;5.75;2.50;;;;;19.15;62.59;100973.38;2381940;28;46130;-89
2022/10/01 09:58:59;;;;;;;;;1.00;1.00;;;;;19.15;62.90;100982.22;2373171;28;45306;-87
2022/10/01 10:00:21;;;;;;;;;1.00;1.00;;;;;19.16;62.70;100977.75;2367695;28;47313;-89
2022/10/01 10:01:59;;;;;;;;;3.25;2.00;;;;;19.17;62.52;100984.78;2363641;29;44787;-89
2022/10/01 10:03:20;;;;;;;;;1.00;0.00;;;;;19.19;62.44;100985.56;2366626;28;47311;-90
2022/10/01 10:04:31;;;;;;;;;1.00;1.00;;;;;19.21;62.95;100994.31;2373912;28;45347;-89
2022/10/01 10:05:48;;;;;;;;;3.00;1.50;;;;;19.24;62.37;100996.75;2378938;28;48128;-88
2022/10/01 10:07:03;;;;;;;;;2.25;0.50;;;;;19.26;62.20;100994.03;2372580;28;45478;-90
2022/10/01 10:08:25;;;;;;;;;4.00;1.25;;;;;19.26;62.26;100986.84;2365636;28;47846;-88
2022/10/01 10:09:36;;;;;;;;;1.25;1.25;;;;;19.30;62.32;100990.19;2381124;28;45408;-88
2022/10/01 10:11:09;;;;;;;;;2.50;0.00;;;;;19.33;61.83;101001.47;2383407;28;45413;-89
2022/10/01 10:12:29;;;;;;;;;2.50;1.50;;;;;19.36;62.17;101004.94;2373678;28;44829;-89
2022/10/01 10:13:49;;;;;;;;;2.50;1.00;;;;;19.40;61.90;101001.09;2377257;28;45409;-87
2022/10/01 10:15:08;;;;;;;;;4.00;2.00;;;;;19.43;61.50;101003.56;2368467;28;45535;-89
2022/10/01 10:16:24;;;;;;;;;2.00;2.00;;;;;19.44;61.50;100999.91;2374815;28;45698;-88
2022/10/01 10:17:36;;;;;;;;;4.25;2.00;;;;;19.47;61.98;101006.84;2376664;28;45267;-87
2022/10/01 10:18:51;;;;;;;;;1.00;1.00;;;;;19.52;61.76;101016.25;2367443;28;47829;-86
2022/10/01 10:20:09;;;;;;;;;2.00;2.00;;;;;19.56;61.43;101016.91;2376543;28;45272;-86
2022/10/01 10:21:24;;;;;;;;;1.75;1.00;;;;;19.59;61.52;101019.38;2376016;28;47456;-87
2022/10/01 10:22:35;;;;;;;;;4.25;2.00;;;;;19.60;61.11;101007.75;2378671;28;46452;-86
2022/10/01 10:23:51;;;;;;;;;2.00;1.00;;;;;19.62;61.00;101008.50;2375737;28;47174;-87
2022/10/01 10:25:12;;;;;;;;;1.25;1.00;;;;;19.67;61.26;101009.06;2386864;28;44759;-86
2022/10/01 10:26:27;;;;;;;;;3.00;1.00;;;;;19.72;61.34;101016.72;2380579;28;47134;-88
2022/10/01 10:27:37;;;;;;;;;4.00;2.00;;;;;19.74;60.80;101016.63;2375749;28;45306;-87
2022/10/01 10:28:48;;;;;;;;;1.75;1.00;;;;;19.79;61.41;101011.81;2382095;28;47094;-88
2022/10/01 10:30:16;;;;;;;;;3.50;1.25;;;;;19.88;61.03;101021.00;2385131;28;45411;-87
2022/10/01 10:31:45;;;;;;;;;2.50;1.00;;;;;19.94;61.61;101019.75;2376170;28;46365;-89
2022/10/01 10:33:04;;;;;;;;;3.50;2.00;;;;;19.95;61.12;101024.13;2370764;28;45424;-91
2022/10/01 10:34:17;;;;;;;;;4.00;1.25;;;;;20.00;60.78;101025.50;2375238;28;47268;-89
2022/10/01 10:35:28;;;;;;;;;3.00;1.00;;;;;20.01;60.65;101024.56;2387169;28;44835;-86
2022/10/01 10:36:40;;;;;;;;;3.50;2.25;;;;;20.02;59.62;101023.59;2381817;28;48080;-84
2022/10/01 10:37:53;;;;;;;;;1.75;1.00;;;;;20.05;60.00;101025.19;2378342;28;45239;-85
2022/10/01 10:39:11;;;;;;;;;1.25;0.75;;;;;20.07;59.56;101022.41;2375044;28;47124;-86
2022/10/01 10:40:38;;;;;;;;;2.50;1.75;;;;;20.05;58.55;101025.19;2370034;28;45230;-85
2022/10/01 10:41:51;;;;;;;;;5.25;3.00;;;;;20.06;59.71;101028.69;2384077;28;45336;-85
2022/10/01 10:43:02;;;;;;;;;4.50;1.75;;;;;20.03;59.12;101024.44;2379611;28;45444;-86
2022/10/01 10:44:18;;;;;;;;;10.25;5.25;;;;;20.03;59.49;101032.44;2377552;28;45228;-85
2022/10/01 10:45:37;;;;;;;;;11.50;5.75;;;;;20.07;59.28;101030.44;2375052;28;45338;-85
2022/10/01 10:46:50;;;;;;;;;8.00;4.00;;;;;20.05;59.24;101027.00;2372307;28;47085;-85
2022/10/01 10:48:11;;;;;;;;;5.00;1.00;;;;;20.05;58.94;101030.50;2378546;28;44672;-85
2022/10/01 10:49:28;;;;;;;;;6.75;2.25;;;;;20.05;58.80;101019.00;2384982;28;46488;-85
2022/10/01 10:50:42;;;;;;;;;11.75;4.00;;;;;20.08;59.22;101032.13;2385627;28;45575;-84
2022/10/01 10:51:54;;;;;;;;;15.00;6.25;;;;;20.11;59.16;101031.94;2385161;28;46452;-86
2022/10/01 10:53:26;;;;;;;;;5.50;2.75;;;;;20.15;57.90;101030.75;2375046;28;45240;-85
2022/10/01 10:54:40;;;;;;;;;11.50;2.75;;;;;20.18;57.84;101029.69;2381090;28;46487;-85
2022/10/01 10:56:02;;;;;;;;;26.25;11.50;;;;;20.18;58.13;101037.69;2378600;28;45278;-85
2022/10/01 10:57:26;;;;;;;;;3.75;2.75;;;;;20.18;57.89;101027.03;2385745;28;45328;-85
2022/10/01 10:58:39;;;;;;;;;2.50;1.75;;;;;20.21;58.10;101033.03;2385411;28;44680;-84
2022/10/01 11:00:11;;;;;;;;;6.75;1.75;;;;;20.27;58.13;101033.56;2375159;28;47269;-85
2022/10/01 11:01:27;;;;;;;;;5.75;2.00;;;;;20.28;57.87;101043.25;2373777;28;45436;-86
2022/10/01 11:02:39;;;;;;;;;5.25;2.25;;;;;20.33;57.38;101041.97;2384817;28;46252;-87
2022/10/01 11:03:55;;;;;;;;;6.00;2.00;;;;;20.34;57.56;101038.38;2385446;28;45287;-84
2022/10/01 11:05:18;;;;;;;;;3.50;1.75;;;;;20.38;56.75;101047.00;2385176;28;45336;-87
2022/10/01 11:06:29;;;;;;;;;1.50;1.00;;;;;20.39;56.84;101043.38;2374850;28;45435;-87
2022/10/01 11:07:43;;;;;;;;;3.00;0.50;;;;;20.38;57.03;101038.97;2377950;28;46113;-85
2022/10/01 11:09:00;;;;;;;;;2.00;1.75;;;;;20.43;57.43;101044.84;2375307;28;45291;-85
2022/10/01 11:10:44;;;;;;;;;3.75;2.00;;;;;20.48;57.81;101051.69;2368842;28;47874;-85
2022/10/01 11:12:21;;;;;;;;;2.00;2.00;;;;;20.51;57.39;101054.13;2382806;28;45260;-86
2022/10/01 11:14:00;;;;;;;;;7.50;3.00;;;;;20.54;57.22;101056.59;2375155;28;48201;-86
2022/10/01 11:15:22;;;;;;;;;2.00;1.00;;;;;20.55;57.07;101058.28;2352930;29;45308;-85
2022/10/01 11:16:44;;;;;;;;;5.25;1.25;;;;;20.55;56.69;101063.63;2366102;28;48201;-86
2022/10/01 11:18:29;;;;;;;;;4.25;2.00;;;;;20.56;56.92;101058.19;2390295;28;45179;-84
2022/10/01 11:19:46;;;;;;;;;1.00;0.75;;;;;20.56;56.34;101055.53;2376287;28;45717;-86
2022/10/01 11:21:27;;;;;;;;;1.50;1.50;;;;;20.56;56.76;101060.00;2385460;28;45294;-86
2022/10/01 11:22:59;;;;;;;;;2.25;1.00;;;;;20.55;56.61;101063.63;2373229;28;47044;-87
2022/10/01 11:24:21;;;;;;;;;9.50;1.25;;;;;20.56;56.82;101068.03;2375154;28;45269;-86
2022/10/01 11:25:46;;;;;;;;;3.00;3.00;;;;;20.55;57.22;101061.81;2369312;28;47620;-85
2022/10/01 11:27:14;;;;;;;;;3.50;1.00;;;;;20.58;56.57;101063.41;2381622;28;47089;-86
2022/10/01 11:28:55;;;;;;;;;3.25;2.00;;;;;20.59;56.31;101065.13;2374662;28;47661;-86
2022/10/01 11:30:21;;;;;;;;;1.25;1.25;;;;;20.60;55.58;101072.16;2376669;28;45322;-83
2022/10/01 11:32:03;;;;;;;;;5.00;1.25;;;;;20.59;56.32;101059.81;2374944;28;47489;-85
2022/10/01 11:33:32;;;;;;;;;4.00;1.25;;;;;20.62;55.88;101072.09;2363350;28;45284;-86
2022/10/01 11:35:13;;;;;;;;;1.00;1.00;;;;;20.62;56.11;101061.41;2374667;28;46489;-85
2022/10/01 11:36:34;;;;;;;;;2.25;1.75;;;;;20.63;56.28;101065.75;2378095;28;45296;-86
2022/10/01 11:37:54;;;;;;;;;2.00;1.75;;;;;20.62;55.73;101072.91;2377755;28;46204;-86
2022/10/01 11:39:12;;;;;;;;;1.25;1.00;;;;;20.62;56.01;101077.41;2374299;28;44729;-86
2022/10/01 11:40:41;;;;;;;;;2.50;2.00;;;;;20.65;55.89;101072.69;2378626;28;46448;-86
2022/10/01 11:41:59;;;;;;;;;2.75;1.00;;;;;20.67;55.88;101075.25;2374881;28;44642;-86
2022/10/01 11:43:23;;;;;;;;;6.25;2.00;;;;;20.68;55.69;101068.97;2368839;28;46197;-86
2022/10/01 11:44:35;;;;;;;;;1.50;1.00;;;;;20.69;55.46;101066.16;2380014;28;45282;-86
2022/10/01 11:45:50;;;;;;;;;1.75;0.75;;;;;20.72;55.81;101066.94;2384527;28;45732;-87
2022/10/01 11:47:24;;;;;;;;;5.00;1.00;;;;;20.73;55.59;101064.16;2384294;28;45179;-87
2022/10/01 11:48:50;;;;;;;;;2.75;2.75;;;;;20.75;55.50;101072.03;2367396;28;48099;-87
2022/10/01 11:50:21;;;;;;;;;3.00;2.25;;;;;20.78;55.68;101072.69;2374918;28;45183;-86
2022/10/01 11:51:41;;;;;;;;;1.25;1.00;;;;;20.82;56.59;101083.16;2380217;28;45210;-87
2022/10/01 11:53:19;;;;;;;;;4.00;1.50;;;;;20.79;55.84;101079.72;2385066;28;45159;-87
2022/10/01 11:54:35;;;;;;;;;3.00;1.50;;;;;20.79;54.92;101065.53;2376150;28;46606;-86
2022/10/01 11:59:20;;;;;;;;;3.00;2.00;;;;;20.68;54.97;101072.50;2384160;28;45504;-86
2022/10/01 12:00:31;;;;;;;;;1.25;1.00;;;;;20.65;55.38;101091.41;2384759;28;46246;-86
2022/10/01 12:01:54;;;;;;;;;1.00;1.00;;;;;20.61;54.83;101081.91;2384978;28;45235;-86
2022/10/01 12:03:13;;;;;;;;;2.50;0.00;;;;;20.56;55.59;101079.56;2384985;28;45545;-86
2022/10/01 12:04:38;;;;;;;;;2.00;0.00;;;;;20.55;55.54;101087.66;2384572;28;44594;-86
2022/10/01 12:05:50;;;;;;;;;3.00;1.00;;;;;20.52;55.44;101085.22;2384089;28;45478;-86
2022/10/01 12:07:10;;;;;;;;;1.50;1.00;;;;;20.51;55.60;101084.38;2384678;28;45155;-85
2022/10/01 12:08:25;;;;;;;;;2.75;2.00;;;;;20.52;55.57;101090.56;2384774;28;45759;-87
2022/10/01 12:09:55;;;;;;;;;2.75;1.25;;;;;20.48;55.25;101084.56;2384993;28;45315;-86
2022/10/01 12:11:20;;;;;;;;;2.25;1.00;;;;;20.46;55.18;101090.03;2384435;28;45402;-86
2022/10/01 12:12:41;;;;;;;;;3.25;2.00;;;;;20.44;54.97;101086.63;2374732;28;44586;-85
2022/10/01 12:14:00;;;;;;;;;4.75;1.00;;;;;20.44;55.11;101080.41;2379069;28;45276;-86
2022/10/01 12:15:21;;;;;;;;;3.00;1.00;;;;;20.43;53.71;101079.56;2384964;28;45198;-85
2022/10/01 12:16:57;;;;;;;;;4.25;1.50;;;;;20.39;52.75;101091.41;2383988;28;48081;-84
2022/10/01 12:18:29;;;;;;;;;1.00;1.00;;;;;20.41;53.74;101094.84;2384866;28;44727;-84
2022/10/01 12:19:46;;;;;;;;;2.00;1.00;;;;;20.39;53.66;101088.75;2384689;28;45367;-85
2022/10/01 12:21:00;;;;;;;;;2.50;0.25;;;;;20.39;54.69;101088.75;2374425;28;45462;-85
2022/10/01 12:22:21;;;;;;;;;0.75;0.75;;;;;20.41;54.63;101092.16;2378093;28;46679;-85
2022/10/01 12:23:59;;;;;;;;;1.00;0.50;;;;;20.42;54.48;101085.00;2374838;28;45272;-85
2022/10/01 12:25:12;;;;;;;;;2.00;0.50;;;;;20.48;54.54;101083.72;2380741;28;46469;-85
2022/10/01 12:26:37;;;;;;;;;3.75;1.00;;;;;20.50;53.51;101087.97;2373634;28;45401;-85
2022/10/01 12:28:09;;;;;;;;;5.00;2.00;;;;;20.55;54.61;101096.53;2379565;28;45390;-86
2022/10/01 12:29:39;;;;;;;;;2.50;1.50;;;;;20.58;54.35;101088.31;2384868;28;45233;-86
2022/10/01 12:31:04;;;;;;;;;1.00;1.00;;;;;20.61;54.49;101094.38;2351067;29;45679;-85